This is the latest recevied weather packets stored in our database for station/object WX7FGZ-5. If no packets are shown the sender has not sent any weather packets the latest 1 day(s).
| Time | Temp. | Humidity | Pressure | Rain* | Wind** | Luminosity | Snow |
|---|---|---|---|---|---|---|---|
| 1778027044 | 4.44° C | 83% | 1016.7 hPa | 0 mm | - | 63 W/m² | - |
| 1778026444 | 4.44° C | 81% | 1017 hPa | 0 mm | - | 72 W/m² | - |
| 1778025959 | 4.44° C | 81% | 1017.1 hPa | 0 mm | - | 53 W/m² | - |
| 1778024544 | 4.44° C | 81% | 1016.7 hPa | 0 mm | - | 76 W/m² | - |
| 1778024245 | 4.44° C | 81% | 1016.8 hPa | 0 mm | - | 95 W/m² | - |
| 1778024087 | 4.44° C | 82% | 1016.3 hPa | 0 mm | - | 113 W/m² | - |
| 1778023044 | 4.44° C | 81% | 1016.3 hPa | 0 mm | - | 60 W/m² | - |
| 1778022743 | 4.44° C | 80% | 1016.2 hPa | 0 mm | - | 56 W/m² | - |
| 1778020944 | 3.89° C | 83% | 1016.3 hPa | 0.25 mm | - | 53 W/m² | - |
| 1778018844 | 3.89° C | 82% | 1016.7 hPa | 0.25 mm | - | 65 W/m² | - |
| 1778017344 | 5° C | 72% | 1017 hPa | 0 mm | - | 42 W/m² | - |
| 1778016443 | 5.56° C | 66% | 1017.1 hPa | 0 mm | - | 28 W/m² | - |
| 1778016204 | 5.56° C | 69% | 1017 hPa | 0 mm | - | 30 W/m² | - |
| 1778015004 | 6.11° C | 67% | 1016.9 hPa | 0 mm | - | 114 W/m² | - |
| 1778014944 | 6.11° C | 67% | 1016.9 hPa | 0 mm | - | 114 W/m² | - |
| 1778013747 | 6.11° C | 67% | 1016.6 hPa | 0 mm | - | 60 W/m² | - |
| 1778013444 | 6.11° C | 67% | 1016.5 hPa | 0 mm | - | 44 W/m² | - |
| 1778012946 | 6.11° C | 65% | 1016.6 hPa | 0 mm | - | 32 W/m² | - |
| 1778010991 | 8.33° C | 62% | 1017 hPa | 0 mm | - | 46 W/m² | - |
| 1778010802 | 8.33° C | 62% | 1016.9 hPa | 0 mm | - | 63 W/m² | - |
| 1778010125 | 8.33° C | 60% | 1016.8 hPa | 0 mm | - | 88 W/m² | - |
| 1778009943 | 8.33° C | 60% | 1016.8 hPa | 0 mm | - | 88 W/m² | - |
| 1778008993 | 8.89° C | 55% | 1016.7 hPa | 0 mm | - | 169 W/m² | - |
| 1778007843 | 9.44° C | 55% | 1016.8 hPa | 0 mm | - | 281 W/m² | - |
| 1778005692 | 10° C | 54% | 1016.8 hPa | 0 mm | - | 1106 W/m² | - |
* Rain latest hour (hover to see other rain measurements)
** Current wind speed in m/s (hover to see current wind gust speed)